createdAt,value
2022-11-29T00:01:42.240Z,-5.75
2022-11-29T00:04:10.993Z,-5.64
2022-11-29T00:06:41.046Z,-5.42
2022-11-29T00:09:11.752Z,-5.48
2022-11-29T00:12:00.209Z,-5.45
2022-11-29T00:14:29.343Z,-5.33
2022-11-29T00:17:02.475Z,-5.43
2022-11-29T00:19:31.492Z,-5.31
2022-11-29T00:22:01.630Z,-5.34
2022-11-29T00:24:32.502Z,-5.42
2022-11-29T00:27:01.866Z,-5.40
2022-11-29T00:29:31.320Z,-5.39
2022-11-29T00:31:59.911Z,-5.66
2022-11-29T00:34:28.549Z,-5.62
2022-11-29T00:36:56.886Z,-5.65
2022-11-29T00:39:26.712Z,-5.65
2022-11-29T00:41:55.197Z,-5.43
2022-11-29T00:44:23.568Z,-5.54
2022-11-29T00:46:51.954Z,-5.61
2022-11-29T00:49:20.290Z,-5.52
2022-11-29T00:51:48.910Z,-5.55
2022-11-29T00:54:18.393Z,-5.51
2022-11-29T00:56:48.151Z,-5.38
2022-11-29T00:59:16.469Z,-5.45
2022-11-29T01:01:44.966Z,-5.33
2022-11-29T01:04:13.321Z,-5.27
2022-11-29T01:06:41.633Z,-5.31
2022-11-29T01:09:10.290Z,-5.30
2022-11-29T01:11:38.598Z,-5.50
2022-11-29T01:14:08.309Z,-5.29
2022-11-29T01:16:36.749Z,-5.32
2022-11-29T01:19:07.362Z,-5.33
2022-11-29T01:21:35.762Z,-5.36
2022-11-29T01:24:04.167Z,-5.43
2022-11-29T01:26:32.701Z,-5.39
2022-11-29T01:29:01.425Z,-5.45
2022-11-29T01:31:32.949Z,-5.53
2022-11-29T01:34:02.564Z,-5.69
2022-11-29T01:36:31.504Z,-5.55
2022-11-29T01:39:00.480Z,-5.71
2022-11-29T01:41:30.517Z,-5.80
2022-11-29T01:44:01.903Z,-5.63
2022-11-29T01:46:33.434Z,-5.83
2022-11-29T01:49:05.397Z,-6.10
2022-11-29T01:51:36.800Z,-5.80
2022-11-29T01:54:05.722Z,-5.63
2022-11-29T01:56:34.930Z,-5.56
2022-11-29T01:59:04.948Z,-5.69
2022-11-29T02:01:36.767Z,-5.53
2022-11-29T02:04:05.436Z,-5.53
2022-11-29T02:06:34.054Z,-5.66
2022-11-29T02:09:02.535Z,-5.77
2022-11-29T02:11:45.306Z,-5.70
2022-11-29T02:14:27.405Z,-6.02
2022-11-29T02:17:04.843Z,-5.65
2022-11-29T02:19:54.960Z,-5.68
2022-11-29T02:22:26.752Z,-5.63
2022-11-29T02:25:11.909Z,-5.63
2022-11-29T02:28:15.295Z,-5.63
2022-11-29T02:30:56.932Z,-5.61
2022-11-29T02:33:55.427Z,-5.72
2022-11-29T02:36:51.354Z,-5.69
2022-11-29T02:39:45.708Z,-5.82
2022-11-29T02:42:56.258Z,-5.73
2022-11-29T02:45:55.897Z,-5.73
2022-11-29T02:49:01.668Z,-5.82
2022-11-29T02:51:36.203Z,-5.84
2022-11-29T02:54:09.707Z,-6.11
2022-11-29T02:56:39.555Z,-5.80
2022-11-29T02:59:37.781Z,-6.05
2022-11-29T03:02:14.690Z,-5.82
2022-11-29T03:04:49.028Z,-5.85
2022-11-29T03:07:22.947Z,-6.06
2022-11-29T03:09:57.514Z,-5.93
2022-11-29T03:12:32.527Z,-6.39
2022-11-29T03:15:08.968Z,-6.47
2022-11-29T03:17:47.085Z,-6.60
2022-11-29T03:20:28.061Z,-6.74
2022-11-29T03:23:11.500Z,-6.90
2022-11-29T03:25:42.233Z,-6.53
2022-11-29T03:28:16.500Z,-6.41
2022-11-29T03:30:50.144Z,-6.28
2022-11-29T03:33:23.983Z,-6.38
2022-11-29T03:35:58.509Z,-6.31
2022-11-29T03:38:30.036Z,-6.27
2022-11-29T03:41:02.557Z,-6.19
2022-11-29T03:43:35.585Z,-6.19
2022-11-29T03:46:07.747Z,-6.42
2022-11-29T03:48:39.372Z,-6.19
2022-11-29T03:51:13.193Z,-6.11
2022-11-29T03:53:48.677Z,-6.36
2022-11-29T03:56:31.647Z,-6.07
2022-11-29T03:59:10.201Z,-6.09
2022-11-29T04:02:06.291Z,-6.07
2022-11-29T04:05:13.241Z,-6.11
2022-11-29T04:07:52.052Z,-6.42
2022-11-29T04:10:49.097Z,-6.66
2022-11-29T04:13:38.415Z,-6.34
2022-11-29T04:16:27.177Z,-6.34
2022-11-29T04:19:24.147Z,-6.68
2022-11-29T04:22:16.533Z,-6.29
2022-11-29T04:25:29.848Z,-6.31
2022-11-29T04:28:39.796Z,-6.36
2022-11-29T04:31:16.341Z,-6.37
2022-11-29T04:34:29.981Z,-6.64
2022-11-29T04:37:16.055Z,-6.75
2022-11-29T04:40:07.334Z,-6.52
2022-11-29T04:42:51.008Z,-6.54
2022-11-29T04:45:50.633Z,-6.48
2022-11-29T04:48:27.679Z,-6.43
2022-11-29T04:51:04.437Z,-6.41
2022-11-29T04:53:43.263Z,-6.37
2022-11-29T04:56:16.584Z,-6.45
2022-11-29T04:58:53.305Z,-6.53
2022-11-29T05:01:29.191Z,-6.63
2022-11-29T05:04:02.752Z,-6.44
2022-11-29T05:06:39.605Z,-6.85
2022-11-29T05:09:13.734Z,-6.45
2022-11-29T05:11:54.146Z,-6.54
2022-11-29T05:14:36.511Z,-6.67
2022-11-29T05:17:26.689Z,-6.61
2022-11-29T05:20:05.107Z,-6.53
2022-11-29T05:22:40.471Z,-6.53
2022-11-29T05:25:35.733Z,-6.55
2022-11-29T05:28:10.337Z,-6.55
2022-11-29T05:31:12.784Z,-6.85
2022-11-29T05:33:56.503Z,-6.66
2022-11-29T05:36:34.039Z,-6.62
2022-11-29T05:39:24.380Z,-6.74
2022-11-29T05:42:09.217Z,-6.83
2022-11-29T05:44:40.353Z,-6.77
2022-11-29T05:47:11.317Z,-6.91
2022-11-29T05:49:44.344Z,-6.57
2022-11-29T05:52:26.986Z,-6.56
2022-11-29T05:55:04.281Z,-6.50
2022-11-29T05:57:38.851Z,-6.69
2022-11-29T06:00:10.743Z,-6.59
2022-11-29T06:03:09.331Z,-7.12
2022-11-29T06:05:38.269Z,-6.59
2022-11-29T06:08:09.966Z,-6.57
2022-11-29T06:10:40.099Z,-6.61
2022-11-29T06:13:16.749Z,-6.58
2022-11-29T06:16:19.577Z,-6.87
2022-11-29T06:19:31.351Z,-6.59
2022-11-29T06:22:11.420Z,-6.91
2022-11-29T06:24:50.623Z,-6.64
2022-11-29T06:27:39.986Z,-6.63
2022-11-29T06:30:11.037Z,-6.77
2022-11-29T06:32:46.629Z,-6.68
2022-11-29T06:35:33.045Z,-6.45
2022-11-29T06:38:04.676Z,-6.41
2022-11-29T06:40:33.510Z,-6.32
2022-11-29T06:43:02.276Z,-6.41
2022-11-29T06:45:31.178Z,-6.13
2022-11-29T06:48:02.795Z,-6.39
2022-11-29T06:50:40.939Z,-6.43
2022-11-29T06:53:16.413Z,-6.60
2022-11-29T06:55:52.317Z,-6.44
2022-11-29T06:58:36.359Z,-6.41
2022-11-29T07:01:13.214Z,-6.50
2022-11-29T07:04:00.637Z,-6.54
2022-11-29T07:06:31.056Z,-6.35
2022-11-29T07:09:03.139Z,-6.41
2022-11-29T07:11:32.013Z,-6.23
2022-11-29T07:14:00.826Z,-6.18
2022-11-29T07:16:33.069Z,-6.32
2022-11-29T07:19:06.490Z,-6.16
2022-11-29T07:21:47.645Z,-6.30
2022-11-29T07:24:25.835Z,-6.21
2022-11-29T07:26:59.817Z,-6.38
2022-11-29T07:29:35.336Z,-6.40
2022-11-29T07:32:10.336Z,-6.37
2022-11-29T07:34:45.198Z,-6.32
2022-11-29T07:37:24.725Z,-6.28
2022-11-29T07:40:00.227Z,-6.28
2022-11-29T07:42:33.112Z,-6.42
2022-11-29T07:45:08.985Z,-6.31
2022-11-29T07:47:37.307Z,-6.48
2022-11-29T07:50:06.333Z,-6.74
2022-11-29T07:52:36.163Z,-6.54
2022-11-29T07:55:05.191Z,-6.60
2022-11-29T07:57:33.584Z,-6.59
2022-11-29T08:00:01.939Z,-6.58
2022-11-29T08:02:40.261Z,-6.62
2022-11-29T08:05:09.846Z,-6.68
2022-11-29T08:07:41.006Z,-6.83
2022-11-29T08:10:11.871Z,-6.43
2022-11-29T08:12:43.958Z,-6.42
2022-11-29T08:15:12.852Z,-6.57
2022-11-29T08:17:41.413Z,-6.80
2022-11-29T08:20:10.957Z,-6.62
2022-11-29T08:22:40.793Z,-6.67
2022-11-29T08:25:10.424Z,-6.64
2022-11-29T08:27:39.434Z,-6.96
2022-11-29T08:30:09.202Z,-6.44
2022-11-29T08:32:37.720Z,-6.63
2022-11-29T08:35:06.521Z,-6.46
2022-11-29T08:37:34.905Z,-6.44
2022-11-29T08:40:04.971Z,-6.16
2022-11-29T08:42:33.274Z,-6.03
2022-11-29T08:45:01.564Z,-6.16
2022-11-29T08:47:38.314Z,-6.23
2022-11-29T08:50:10.306Z,-6.73
2022-11-29T08:52:58.382Z,-6.63
2022-11-29T08:55:29.627Z,-6.51
2022-11-29T08:58:03.087Z,-6.40
2022-11-29T09:00:33.830Z,-6.46
2022-11-29T09:03:17.306Z,-6.19
2022-11-29T09:05:45.730Z,-6.03
2022-11-29T09:08:14.129Z,-5.93
2022-11-29T09:10:44.289Z,-5.90
2022-11-29T09:13:13.323Z,-5.94
2022-11-29T09:15:43.687Z,-5.73
2022-11-29T09:18:12.344Z,-5.77
2022-11-29T09:20:43.500Z,-5.74
2022-11-29T09:23:12.905Z,-5.78
2022-11-29T09:25:41.230Z,-5.95
2022-11-29T09:28:12.714Z,-6.25
2022-11-29T09:30:41.050Z,-6.29
2022-11-29T09:33:09.412Z,-6.58
2022-11-29T09:35:37.936Z,-6.34
2022-11-29T09:38:06.288Z,-6.36
2022-11-29T09:40:39.417Z,-6.37
2022-11-29T09:43:15.568Z,-6.52
2022-11-29T09:45:46.622Z,-6.36
2022-11-29T09:48:31.095Z,-7.07
2022-11-29T09:51:07.764Z,-6.55
2022-11-29T09:53:56.148Z,-6.48
2022-11-29T09:56:30.007Z,-6.57
2022-11-29T09:59:02.500Z,-6.42
2022-11-29T10:01:33.387Z,-6.25
2022-11-29T10:04:05.308Z,-6.11
2022-11-29T10:06:38.975Z,-6.18
2022-11-29T10:09:09.598Z,-6.39
2022-11-29T10:11:40.136Z,-6.36
2022-11-29T10:14:14.631Z,-6.19
2022-11-29T10:16:46.176Z,-6.11
2022-11-29T10:19:19.879Z,-6.15
2022-11-29T10:21:57.333Z,-6.28
2022-11-29T10:24:27.005Z,-6.14
2022-11-29T10:26:55.517Z,-6.30
2022-11-29T10:29:25.464Z,-6.38
2022-11-29T10:31:56.901Z,-6.37
2022-11-29T10:34:27.136Z,-6.38
2022-11-29T10:36:59.597Z,-6.39
2022-11-29T10:39:32.389Z,-6.31
2022-11-29T10:42:03.154Z,-6.47
2022-11-29T10:44:33.682Z,-6.72
2022-11-29T10:47:07.849Z,-6.67
2022-11-29T10:49:40.333Z,-6.65
2022-11-29T10:52:18.127Z,-6.67
2022-11-29T10:54:48.149Z,-6.78
2022-11-29T10:57:19.022Z,-6.59
2022-11-29T11:00:02.256Z,-6.85
2022-11-29T11:02:33.609Z,-6.60
2022-11-29T11:05:03.029Z,-6.56
2022-11-29T11:07:35.784Z,-6.66
2022-11-29T11:10:08.207Z,-6.75
2022-11-29T11:12:37.141Z,-6.83
2022-11-29T11:15:26.181Z,-6.76
2022-11-29T11:17:59.640Z,-6.69
2022-11-29T11:20:29.674Z,-6.40
2022-11-29T11:23:00.387Z,-6.50
2022-11-29T11:25:31.939Z,-6.59
2022-11-29T11:28:13.794Z,-6.62
2022-11-29T11:30:51.148Z,-6.51
2022-11-29T11:33:21.432Z,-6.37
2022-11-29T11:36:04.517Z,-6.36
2022-11-29T11:38:33.433Z,-6.29
2022-11-29T11:41:20.697Z,-6.26
2022-11-29T11:43:57.320Z,-6.43
2022-11-29T11:46:47.233Z,-6.80
2022-11-29T11:49:15.848Z,-6.54
2022-11-29T11:51:45.157Z,-6.54
2022-11-29T11:54:15.509Z,-6.71
2022-11-29T11:56:44.718Z,-6.57
2022-11-29T11:59:18.694Z,-6.73
2022-11-29T12:01:50.893Z,-6.82
2022-11-29T12:04:21.856Z,-6.82
2022-11-29T12:06:54.105Z,-6.82
2022-11-29T12:09:34.290Z,-6.86
2022-11-29T12:12:10.088Z,-6.87
2022-11-29T12:14:44.818Z,-6.95
2022-11-29T12:17:20.382Z,-7.25
2022-11-29T12:20:00.504Z,-7.00
2022-11-29T12:22:36.738Z,-7.02
2022-11-29T12:25:07.699Z,-7.06
2022-11-29T12:27:36.076Z,-7.08
2022-11-29T12:30:12.443Z,-7.42
2022-11-29T12:32:57.924Z,-7.34
2022-11-29T12:35:35.545Z,-7.42
2022-11-29T12:38:12.101Z,-7.34
2022-11-29T12:40:45.849Z,-7.28
2022-11-29T12:43:22.060Z,-7.36
2022-11-29T12:45:55.200Z,-7.42
2022-11-29T12:48:31.337Z,-7.43
2022-11-29T12:51:06.547Z,-7.40
2022-11-29T12:53:52.194Z,-7.41
2022-11-29T12:56:28.145Z,-7.42
2022-11-29T12:59:07.478Z,-7.41
2022-11-29T13:01:45.238Z,-7.53
2022-11-29T13:04:21.305Z,-7.46
2022-11-29T13:06:54.117Z,-7.47
2022-11-29T13:09:54.030Z,-7.47
2022-11-29T13:12:27.332Z,-7.53
2022-11-29T13:15:00.275Z,-7.57
2022-11-29T13:17:34.347Z,-7.55
2022-11-29T13:20:17.387Z,-7.72
2022-11-29T13:22:48.245Z,-7.81
2022-11-29T13:25:20.144Z,-7.83
2022-11-29T13:27:55.157Z,-8.04
2022-11-29T13:30:23.540Z,-7.61
2022-11-29T13:32:58.054Z,-7.76
2022-11-29T13:35:33.815Z,-7.74
2022-11-29T13:38:08.463Z,-7.57
2022-11-29T13:40:39.238Z,-7.62
2022-11-29T13:43:17.139Z,-7.60
2022-11-29T13:45:50.603Z,-7.60
2022-11-29T13:48:35.398Z,-7.79
2022-11-29T13:51:30.015Z,-7.71
2022-11-29T13:53:59.955Z,-7.58
2022-11-29T13:56:36.755Z,-7.69
2022-11-29T13:59:10.494Z,-7.66
2022-11-29T14:01:47.584Z,-7.72
2022-11-29T14:04:30.762Z,-7.74
2022-11-29T14:07:09.998Z,-7.94
2022-11-29T14:09:53.262Z,-8.17
2022-11-29T14:12:37.182Z,-8.09
2022-11-29T14:15:18.373Z,-8.13
2022-11-29T14:17:57.999Z,-8.30
2022-11-29T14:20:56.648Z,-8.33
2022-11-29T14:23:43.263Z,-8.46
2022-11-29T14:26:28.498Z,-8.75
2022-11-29T14:28:58.179Z,-8.47
2022-11-29T14:31:54.956Z,-8.52
2022-11-29T14:34:42.940Z,-8.74
2022-11-29T14:37:42.361Z,-8.55
2022-11-29T14:40:22.535Z,-8.55
2022-11-29T14:42:52.857Z,-8.54
2022-11-29T14:45:32.294Z,-8.89
2022-11-29T14:48:04.063Z,-8.53
2022-11-29T14:50:35.704Z,-8.50
2022-11-29T14:53:05.054Z,-8.53
2022-11-29T14:55:37.546Z,-8.49
2022-11-29T14:58:16.516Z,-8.47
2022-11-29T15:01:10.394Z,-8.69
2022-11-29T15:03:45.457Z,-8.92
2022-11-29T15:06:19.797Z,-8.55
2022-11-29T15:08:55.902Z,-8.60
2022-11-29T15:11:44.762Z,-8.62
2022-11-29T15:14:19.576Z,-9.01
2022-11-29T15:17:15.369Z,-8.66
2022-11-29T15:20:14.446Z,-8.76
2022-11-29T15:22:48.212Z,-8.86
2022-11-29T15:25:19.048Z,-8.95
2022-11-29T15:27:55.880Z,-8.84
2022-11-29T15:30:33.075Z,-8.82
2022-11-29T15:33:02.716Z,-8.70
2022-11-29T15:35:31.367Z,-8.75
2022-11-29T15:37:59.735Z,-8.72
2022-11-29T15:40:35.699Z,-9.01
2022-11-29T15:43:16.258Z,-8.70
2022-11-29T15:45:48.440Z,-9.03
2022-11-29T15:48:20.257Z,-8.73
2022-11-29T15:50:56.331Z,-8.96
2022-11-29T15:53:27.213Z,-8.87
2022-11-29T15:55:58.499Z,-8.91
2022-11-29T15:58:29.447Z,-8.96
2022-11-29T16:00:59.224Z,-9.24
2022-11-29T16:03:30.129Z,-9.03
2022-11-29T16:06:03.467Z,-9.04
2022-11-29T16:08:35.654Z,-9.87
2022-11-29T16:11:03.996Z,-9.14
2022-11-29T16:13:39.390Z,-9.15
2022-11-29T16:16:11.673Z,-9.14
2022-11-29T16:18:42.214Z,-9.22
2022-11-29T16:21:25.557Z,-9.15
2022-11-29T16:23:54.722Z,-9.36
2022-11-29T16:26:25.496Z,-9.06
2022-11-29T16:28:56.431Z,-9.02
2022-11-29T16:31:26.360Z,-9.02
2022-11-29T16:33:54.722Z,-9.00
2022-11-29T16:36:25.044Z,-9.00
2022-11-29T16:38:55.322Z,-8.99
2022-11-29T16:41:26.849Z,-8.98
2022-11-29T16:43:58.116Z,-9.01
2022-11-29T16:46:35.154Z,-9.01
2022-11-29T16:49:21.013Z,-9.45
2022-11-29T16:51:49.533Z,-9.12
2022-11-29T16:54:23.765Z,-9.06
2022-11-29T16:56:53.141Z,-9.04
2022-11-29T16:59:27.448Z,-9.01
2022-11-29T17:01:57.439Z,-9.01
2022-11-29T17:04:26.118Z,-9.09
2022-11-29T17:06:56.002Z,-9.19
2022-11-29T17:09:26.969Z,-9.44
2022-11-29T17:11:55.847Z,-9.35
2022-11-29T17:14:25.859Z,-9.54
2022-11-29T17:16:54.499Z,-9.08
2022-11-29T17:19:24.013Z,-9.09
2022-11-29T17:21:53.015Z,-9.37
2022-11-29T17:24:24.562Z,-9.10
2022-11-29T17:26:53.219Z,-9.20
2022-11-29T17:29:21.700Z,-9.09
2022-11-29T17:31:53.383Z,-9.16
2022-11-29T17:34:22.026Z,-9.08
2022-11-29T17:36:51.028Z,-9.08
2022-11-29T17:39:20.364Z,-9.16
2022-11-29T17:41:48.972Z,-9.05
2022-11-29T17:44:17.402Z,-9.22
2022-11-29T17:46:45.775Z,-9.08
2022-11-29T17:49:15.658Z,-9.30
2022-11-29T17:51:52.781Z,-9.28
2022-11-29T17:54:22.408Z,-9.32
2022-11-29T17:56:51.224Z,-9.31
2022-11-29T17:59:19.741Z,-9.41
2022-11-29T18:01:48.379Z,-9.05
2022-11-29T18:04:19.614Z,-9.04
2022-11-29T18:06:50.435Z,-9.06
2022-11-29T18:09:19.953Z,-9.05
2022-11-29T18:11:50.299Z,-9.07
2022-11-29T18:14:20.984Z,-9.32
2022-11-29T18:16:49.667Z,-9.09
2022-11-29T18:19:21.408Z,-9.10
2022-11-29T18:21:51.072Z,-9.49
2022-11-29T18:24:19.615Z,-9.52
2022-11-29T18:26:47.987Z,-9.09
2022-11-29T18:29:16.656Z,-9.32
2022-11-29T18:31:48.282Z,-9.14
2022-11-29T18:34:16.845Z,-9.16
2022-11-29T18:36:49.079Z,-9.04
2022-11-29T18:39:19.181Z,-9.16
2022-11-29T18:41:48.917Z,-9.03
2022-11-29T18:44:19.116Z,-9.45
2022-11-29T18:46:48.028Z,-9.03
2022-11-29T18:49:20.717Z,-9.06
2022-11-29T18:51:51.777Z,-9.06
2022-11-29T18:54:21.538Z,-9.05
2022-11-29T18:56:51.442Z,-9.02
2022-11-29T18:59:20.226Z,-9.00
2022-11-29T19:01:49.375Z,-9.21
2022-11-29T19:04:19.660Z,-9.31
2022-11-29T19:06:48.570Z,-9.04
2022-11-29T19:09:21.148Z,-9.03
2022-11-29T19:11:50.771Z,-9.04
2022-11-29T19:14:20.023Z,-9.14
2022-11-29T19:16:49.848Z,-9.04
2022-11-29T19:19:19.114Z,-9.04
2022-11-29T19:21:47.833Z,-9.05
2022-11-29T19:24:18.620Z,-9.31
2022-11-29T19:26:50.081Z,-9.27
2022-11-29T19:29:18.920Z,-9.05
2022-11-29T19:31:47.793Z,-9.04
2022-11-29T19:34:16.286Z,-9.53
2022-11-29T19:36:45.583Z,-9.03
2022-11-29T19:39:15.410Z,-9.01
2022-11-29T19:41:46.751Z,-9.38
2022-11-29T19:44:15.597Z,-9.00
2022-11-29T19:46:48.441Z,-9.20
2022-11-29T19:49:17.241Z,-9.07
2022-11-29T19:51:59.405Z,-9.13
2022-11-29T19:54:28.010Z,-9.24
2022-11-29T19:56:58.849Z,-8.98
2022-11-29T19:59:27.472Z,-8.98
2022-11-29T20:01:55.920Z,-8.97
2022-11-29T20:04:24.446Z,-8.98
2022-11-29T20:06:54.649Z,-8.99
2022-11-29T20:09:23.453Z,-9.25
2022-11-29T20:11:51.822Z,-8.99
2022-11-29T20:14:21.703Z,-8.99
2022-11-29T20:16:50.334Z,-9.13
2022-11-29T20:19:19.186Z,-9.29
2022-11-29T20:21:48.999Z,-8.91
2022-11-29T20:24:18.092Z,-9.06
2022-11-29T20:26:48.082Z,-9.08
2022-11-29T20:29:17.556Z,-8.88
2022-11-29T20:31:50.585Z,-8.89
2022-11-29T20:34:21.837Z,-9.34
2022-11-29T20:37:36.021Z,-8.86
2022-11-29T20:40:07.696Z,-9.14
2022-11-29T20:43:05.031Z,-8.82
2022-11-29T20:45:33.984Z,-8.92
2022-11-29T20:48:05.872Z,-8.99
2022-11-29T20:50:34.744Z,-8.93
2022-11-29T20:53:16.937Z,-8.84
2022-11-29T20:55:48.228Z,-8.84
2022-11-29T20:58:17.840Z,-9.18
2022-11-29T21:00:46.370Z,-8.83
2022-11-29T21:03:20.487Z,-9.26
2022-11-29T21:05:49.476Z,-9.12
2022-11-29T21:08:21.006Z,-8.82
2022-11-29T21:10:49.829Z,-8.88
2022-11-29T21:13:19.320Z,-8.95
2022-11-29T21:15:48.639Z,-8.84
2022-11-29T21:18:25.038Z,-9.06
2022-11-29T21:21:03.357Z,-9.04
2022-11-29T21:23:44.006Z,-8.89
2022-11-29T21:26:16.907Z,-8.81
2022-11-29T21:28:57.251Z,-8.82
2022-11-29T21:31:26.226Z,-8.84
2022-11-29T21:33:56.643Z,-8.84
2022-11-29T21:36:25.020Z,-9.05
2022-11-29T21:38:55.198Z,-8.82
2022-11-29T21:41:23.992Z,-8.81
2022-11-29T21:44:06.544Z,-8.93
2022-11-29T21:46:36.772Z,-8.92
2022-11-29T21:49:06.865Z,-8.82
2022-11-29T21:51:35.243Z,-9.07
2022-11-29T21:54:03.641Z,-8.83
2022-11-29T21:56:32.032Z,-8.84
2022-11-29T21:59:00.377Z,-8.84
2022-11-29T22:01:29.570Z,-8.84
2022-11-29T22:03:58.216Z,-8.92
2022-11-29T22:06:29.525Z,-9.02
2022-11-29T22:09:00.029Z,-8.88
2022-11-29T22:11:35.554Z,-9.17
2022-11-29T22:14:18.418Z,-9.02
2022-11-29T22:16:49.092Z,-9.11
2022-11-29T22:19:18.508Z,-9.01
2022-11-29T22:21:49.929Z,-9.15
2022-11-29T22:24:20.103Z,-9.00
2022-11-29T22:26:49.517Z,-9.19
2022-11-29T22:29:18.156Z,-9.07
2022-11-29T22:31:49.324Z,-8.96
2022-11-29T22:34:18.070Z,-9.18
2022-11-29T22:36:47.942Z,-8.97
2022-11-29T22:39:16.426Z,-9.34
2022-11-29T22:41:47.038Z,-8.97
2022-11-29T22:44:19.062Z,-8.98
2022-11-29T22:46:47.370Z,-8.98
2022-11-29T22:49:15.964Z,-8.96
2022-11-29T22:51:44.333Z,-9.07
2022-11-29T22:54:15.529Z,-9.03
2022-11-29T22:56:44.686Z,-8.99
2022-11-29T22:59:13.067Z,-9.05
2022-11-29T23:01:42.941Z,-9.01
2022-11-29T23:04:12.662Z,-9.03
2022-11-29T23:06:42.905Z,-9.04
2022-11-29T23:09:16.312Z,-9.07
2022-11-29T23:11:46.385Z,-9.08
2022-11-29T23:14:14.879Z,-9.17
2022-11-29T23:16:44.030Z,-9.24
2022-11-29T23:19:12.661Z,-9.04
2022-11-29T23:21:45.680Z,-9.31
2022-11-29T23:24:16.071Z,-9.11
2022-11-29T23:26:46.091Z,-9.08
2022-11-29T23:29:15.946Z,-9.09
2022-11-29T23:31:44.647Z,-9.12
2022-11-29T23:34:13.001Z,-9.21
2022-11-29T23:36:41.674Z,-9.08
2022-11-29T23:39:10.467Z,-9.08
2022-11-29T23:41:40.239Z,-9.52
2022-11-29T23:44:09.428Z,-9.15
2022-11-29T23:46:37.995Z,-9.22
2022-11-29T23:49:06.343Z,-9.13
2022-11-29T23:51:34.642Z,-9.13
2022-11-29T23:54:02.986Z,-9.15
2022-11-29T23:56:35.469Z,-9.15
2022-11-29T23:59:05.589Z,-9.23
